sensor_id;sensor_type;location;lat;lon;timestamp;temperature;humidity
10692;DHT22;5396;50.950;6.988;2022-11-15T00:00:51;10.40;99.90
10692;DHT22;5396;50.950;6.988;2022-11-15T00:03:18;10.40;99.90
10692;DHT22;5396;50.950;6.988;2022-11-15T00:05:45;10.40;99.90
10692;DHT22;5396;50.950;6.988;2022-11-15T00:08:11;10.40;99.90
10692;DHT22;5396;50.950;6.988;2022-11-15T00:10:37;10.40;99.90
10692;DHT22;5396;50.950;6.988;2022-11-15T00:13:07;10.40;99.90
10692;DHT22;5396;50.950;6.988;2022-11-15T00:15:38;10.50;99.90
10692;DHT22;5396;50.950;6.988;2022-11-15T00:18:05;10.50;99.90
10692;DHT22;5396;50.950;6.988;2022-11-15T00:20:33;10.60;99.90
10692;DHT22;5396;50.950;6.988;2022-11-15T00:22:58;10.60;99.90
10692;DHT22;5396;50.950;6.988;2022-11-15T00:25:24;10.70;99.90
10692;DHT22;5396;50.950;6.988;2022-11-15T00:27:49;10.70;99.90
10692;DHT22;5396;50.950;6.988;2022-11-15T00:30:17;10.80;99.90
10692;DHT22;5396;50.950;6.988;2022-11-15T00:32:42;10.80;99.90
10692;DHT22;5396;50.950;6.988;2022-11-15T00:35:08;10.90;99.90
10692;DHT22;5396;50.950;6.988;2022-11-15T00:37:33;10.90;99.90
10692;DHT22;5396;50.950;6.988;2022-11-15T00:39:59;11.00;99.90
10692;DHT22;5396;50.950;6.988;2022-11-15T00:42:24;11.10;99.90
10692;DHT22;5396;50.950;6.988;2022-11-15T00:44:50;11.20;99.90
10692;DHT22;5396;50.950;6.988;2022-11-15T00:47:15;11.20;99.90
10692;DHT22;5396;50.950;6.988;2022-11-15T00:49:41;11.20;99.90
10692;DHT22;5396;50.950;6.988;2022-11-15T00:52:07;11.30;99.90
10692;DHT22;5396;50.950;6.988;2022-11-15T00:54:32;11.30;99.90
10692;DHT22;5396;50.950;6.988;2022-11-15T00:56:58;11.30;99.90
10692;DHT22;5396;50.950;6.988;2022-11-15T00:59:23;11.30;99.90
10692;DHT22;5396;50.950;6.988;2022-11-15T01:01:49;11.30;99.90
10692;DHT22;5396;50.950;6.988;2022-11-15T01:04:14;11.40;99.90
10692;DHT22;5396;50.950;6.988;2022-11-15T01:06:40;11.40;99.90
10692;DHT22;5396;50.950;6.988;2022-11-15T01:09:06;11.40;99.90
10692;DHT22;5396;50.950;6.988;2022-11-15T01:11:31;11.40;99.90
10692;DHT22;5396;50.950;6.988;2022-11-15T01:13:57;11.40;99.90
10692;DHT22;5396;50.950;6.988;2022-11-15T01:16:22;11.50;99.90
10692;DHT22;5396;50.950;6.988;2022-11-15T01:18:48;11.40;99.90
10692;DHT22;5396;50.950;6.988;2022-11-15T01:21:16;11.50;99.90
10692;DHT22;5396;50.950;6.988;2022-11-15T01:23:42;11.50;99.90
10692;DHT22;5396;50.950;6.988;2022-11-15T01:26:11;11.50;99.90
10692;DHT22;5396;50.950;6.988;2022-11-15T01:28:39;11.50;99.90
10692;DHT22;5396;50.950;6.988;2022-11-15T01:31:12;11.50;99.90
10692;DHT22;5396;50.950;6.988;2022-11-15T01:33:38;11.50;99.90
10692;DHT22;5396;50.950;6.988;2022-11-15T01:36:05;11.60;99.90
10692;DHT22;5396;50.950;6.988;2022-11-15T01:38:31;11.60;99.90
10692;DHT22;5396;50.950;6.988;2022-11-15T01:40:57;11.60;99.90
10692;DHT22;5396;50.950;6.988;2022-11-15T01:45:56;11.60;99.90
10692;DHT22;5396;50.950;6.988;2022-11-15T01:48:28;11.60;99.90
10692;DHT22;5396;50.950;6.988;2022-11-15T01:50:57;11.60;99.90
10692;DHT22;5396;50.950;6.988;2022-11-15T01:53:24;11.60;99.90
10692;DHT22;5396;50.950;6.988;2022-11-15T01:55:51;11.60;99.90
10692;DHT22;5396;50.950;6.988;2022-11-15T01:58:17;11.60;99.90
10692;DHT22;5396;50.950;6.988;2022-11-15T02:00:43;11.60;99.90
10692;DHT22;5396;50.950;6.988;2022-11-15T02:03:09;11.60;99.90
10692;DHT22;5396;50.950;6.988;2022-11-15T02:05:36;11.60;99.90
10692;DHT22;5396;50.950;6.988;2022-11-15T02:08:02;11.60;99.90
10692;DHT22;5396;50.950;6.988;2022-11-15T02:10:28;11.60;99.90
10692;DHT22;5396;50.950;6.988;2022-11-15T02:12:55;11.60;99.90
10692;DHT22;5396;50.950;6.988;2022-11-15T02:15:24;11.50;99.90
10692;DHT22;5396;50.950;6.988;2022-11-15T02:23:45;11.50;99.90
10692;DHT22;5396;50.950;6.988;2022-11-15T02:29:15;11.50;99.90
10692;DHT22;5396;50.950;6.988;2022-11-15T02:32:02;11.50;99.90
10692;DHT22;5396;50.950;6.988;2022-11-15T02:43:12;11.60;99.90
10692;DHT22;5396;50.950;6.988;2022-11-15T02:46:19;11.60;99.90
10692;DHT22;5396;50.950;6.988;2022-11-15T02:48:49;11.60;99.90
10692;DHT22;5396;50.950;6.988;2022-11-15T02:51:16;11.60;99.90
10692;DHT22;5396;50.950;6.988;2022-11-15T02:53:41;11.60;99.90
10692;DHT22;5396;50.950;6.988;2022-11-15T02:56:09;11.60;99.90
10692;DHT22;5396;50.950;6.988;2022-11-15T02:59:00;11.60;99.90
10692;DHT22;5396;50.950;6.988;2022-11-15T03:07:30;11.60;99.90
10692;DHT22;5396;50.950;6.988;2022-11-15T03:10:42;11.70;99.90
10692;DHT22;5396;50.950;6.988;2022-11-15T03:13:24;11.70;99.90
10692;DHT22;5396;50.950;6.988;2022-11-15T03:15:57;11.80;99.90
10692;DHT22;5396;50.950;6.988;2022-11-15T03:18:37;11.90;99.90
10692;DHT22;5396;50.950;6.988;2022-11-15T03:21:08;11.90;99.90
10692;DHT22;5396;50.950;6.988;2022-11-15T03:23:36;11.90;99.90
10692;DHT22;5396;50.950;6.988;2022-11-15T03:26:02;11.90;99.90
10692;DHT22;5396;50.950;6.988;2022-11-15T03:31:09;11.90;99.90
10692;DHT22;5396;50.950;6.988;2022-11-15T03:33:58;11.90;99.90
10692;DHT22;5396;50.950;6.988;2022-11-15T03:36:24;11.90;99.90
10692;DHT22;5396;50.950;6.988;2022-11-15T03:38:53;12.00;99.90
10692;DHT22;5396;50.950;6.988;2022-11-15T03:41:27;12.00;99.90
10692;DHT22;5396;50.950;6.988;2022-11-15T03:44:37;12.10;99.90
10692;DHT22;5396;50.950;6.988;2022-11-15T03:47:08;12.10;99.90
10692;DHT22;5396;50.950;6.988;2022-11-15T03:49:38;12.10;99.90
10692;DHT22;5396;50.950;6.988;2022-11-15T03:52:06;12.10;99.90
10692;DHT22;5396;50.950;6.988;2022-11-15T03:54:31;12.10;99.90
10692;DHT22;5396;50.950;6.988;2022-11-15T03:56:57;12.10;99.90
10692;DHT22;5396;50.950;6.988;2022-11-15T03:59:23;12.10;99.90
10692;DHT22;5396;50.950;6.988;2022-11-15T04:01:48;12.10;99.90
10692;DHT22;5396;50.950;6.988;2022-11-15T04:04:14;12.10;99.90
10692;DHT22;5396;50.950;6.988;2022-11-15T04:06:40;12.10;99.90
10692;DHT22;5396;50.950;6.988;2022-11-15T04:09:05;12.10;99.90
10692;DHT22;5396;50.950;6.988;2022-11-15T04:11:31;12.10;99.90
10692;DHT22;5396;50.950;6.988;2022-11-15T04:13:56;12.10;99.90
10692;DHT22;5396;50.950;6.988;2022-11-15T04:16:22;12.10;99.90
10692;DHT22;5396;50.950;6.988;2022-11-15T04:18:47;12.10;99.90
10692;DHT22;5396;50.950;6.988;2022-11-15T04:21:33;12.10;99.90
10692;DHT22;5396;50.950;6.988;2022-11-15T04:24:17;12.20;99.90
10692;DHT22;5396;50.950;6.988;2022-11-15T04:26:43;12.20;99.90
10692;DHT22;5396;50.950;6.988;2022-11-15T04:29:08;12.20;99.90
10692;DHT22;5396;50.950;6.988;2022-11-15T04:31:52;12.20;99.90
10692;DHT22;5396;50.950;6.988;2022-11-15T04:34:18;12.20;99.90
10692;DHT22;5396;50.950;6.988;2022-11-15T04:36:43;12.20;99.90
10692;DHT22;5396;50.950;6.988;2022-11-15T04:39:27;12.10;99.90
10692;DHT22;5396;50.950;6.988;2022-11-15T04:41:53;12.20;99.90
10692;DHT22;5396;50.950;6.988;2022-11-15T04:44:18;12.20;99.90
10692;DHT22;5396;50.950;6.988;2022-11-15T04:46:44;12.20;99.90
10692;DHT22;5396;50.950;6.988;2022-11-15T04:49:09;12.20;99.90
10692;DHT22;5396;50.950;6.988;2022-11-15T04:51:35;12.30;99.90
10692;DHT22;5396;50.950;6.988;2022-11-15T04:54:01;12.30;99.90
10692;DHT22;5396;50.950;6.988;2022-11-15T04:56:26;12.30;99.90
10692;DHT22;5396;50.950;6.988;2022-11-15T04:58:52;12.30;99.90
10692;DHT22;5396;50.950;6.988;2022-11-15T05:01:17;12.30;99.90
10692;DHT22;5396;50.950;6.988;2022-11-15T05:03:44;12.30;99.90
10692;DHT22;5396;50.950;6.988;2022-11-15T05:06:29;12.20;99.90
10692;DHT22;5396;50.950;6.988;2022-11-15T05:08:55;12.20;99.90
10692;DHT22;5396;50.950;6.988;2022-11-15T05:11:21;12.20;99.90
10692;DHT22;5396;50.950;6.988;2022-11-15T05:13:46;12.20;99.90
10692;DHT22;5396;50.950;6.988;2022-11-15T05:16:12;12.10;99.90
10692;DHT22;5396;50.950;6.988;2022-11-15T05:18:37;12.10;99.90
10692;DHT22;5396;50.950;6.988;2022-11-15T05:21:10;12.10;99.90
10692;DHT22;5396;50.950;6.988;2022-11-15T05:23:37;12.00;99.90
10692;DHT22;5396;50.950;6.988;2022-11-15T05:26:04;12.00;99.90
10692;DHT22;5396;50.950;6.988;2022-11-15T05:28:31;12.00;99.90
10692;DHT22;5396;50.950;6.988;2022-11-15T05:31:08;11.90;99.90
10692;DHT22;5396;50.950;6.988;2022-11-15T05:33:35;11.90;99.90
10692;DHT22;5396;50.950;6.988;2022-11-15T05:36:27;11.80;99.90
10692;DHT22;5396;50.950;6.988;2022-11-15T05:38:53;11.80;99.90
10692;DHT22;5396;50.950;6.988;2022-11-15T05:41:20;11.80;99.90
10692;DHT22;5396;50.950;6.988;2022-11-15T05:43:48;11.70;99.90
10692;DHT22;5396;50.950;6.988;2022-11-15T05:46:14;11.70;99.90
10692;DHT22;5396;50.950;6.988;2022-11-15T05:48:43;11.70;99.90
10692;DHT22;5396;50.950;6.988;2022-11-15T05:51:09;11.60;99.90
10692;DHT22;5396;50.950;6.988;2022-11-15T05:53:37;11.60;99.90
10692;DHT22;5396;50.950;6.988;2022-11-15T05:56:04;11.60;99.90
10692;DHT22;5396;50.950;6.988;2022-11-15T05:58:32;11.50;99.90
10692;DHT22;5396;50.950;6.988;2022-11-15T06:00:58;11.40;99.90
10692;DHT22;5396;50.950;6.988;2022-11-15T06:03:24;11.40;99.90
10692;DHT22;5396;50.950;6.988;2022-11-15T06:05:49;11.40;99.90
10692;DHT22;5396;50.950;6.988;2022-11-15T06:08:15;11.30;99.90
10692;DHT22;5396;50.950;6.988;2022-11-15T06:10:40;11.30;99.90
10692;DHT22;5396;50.950;6.988;2022-11-15T06:13:06;11.30;99.90
10692;DHT22;5396;50.950;6.988;2022-11-15T06:15:32;11.30;99.90
10692;DHT22;5396;50.950;6.988;2022-11-15T06:17:59;11.20;99.90
10692;DHT22;5396;50.950;6.988;2022-11-15T06:20:26;11.20;99.90
10692;DHT22;5396;50.950;6.988;2022-11-15T06:22:57;11.20;99.90
10692;DHT22;5396;50.950;6.988;2022-11-15T06:25:23;11.20;99.90
10692;DHT22;5396;50.950;6.988;2022-11-15T06:27:52;11.20;99.90
10692;DHT22;5396;50.950;6.988;2022-11-15T06:30:18;11.20;99.90
10692;DHT22;5396;50.950;6.988;2022-11-15T06:32:44;11.20;99.90
10692;DHT22;5396;50.950;6.988;2022-11-15T06:35:10;11.20;99.90
10692;DHT22;5396;50.950;6.988;2022-11-15T06:37:35;11.10;99.90
10692;DHT22;5396;50.950;6.988;2022-11-15T06:40:01;11.10;99.90
10692;DHT22;5396;50.950;6.988;2022-11-15T06:42:26;11.10;99.90
10692;DHT22;5396;50.950;6.988;2022-11-15T06:44:52;11.10;99.90
10692;DHT22;5396;50.950;6.988;2022-11-15T06:47:17;11.10;99.90
10692;DHT22;5396;50.950;6.988;2022-11-15T06:49:43;11.00;99.90
10692;DHT22;5396;50.950;6.988;2022-11-15T06:52:08;11.00;99.90
10692;DHT22;5396;50.950;6.988;2022-11-15T06:54:34;11.00;99.90
10692;DHT22;5396;50.950;6.988;2022-11-15T06:56:59;11.00;99.90
10692;DHT22;5396;50.950;6.988;2022-11-15T06:59:25;11.00;99.90
10692;DHT22;5396;50.950;6.988;2022-11-15T07:01:50;11.00;99.90
10692;DHT22;5396;50.950;6.988;2022-11-15T07:04:16;11.00;99.90
10692;DHT22;5396;50.950;6.988;2022-11-15T07:06:42;11.00;99.90
10692;DHT22;5396;50.950;6.988;2022-11-15T07:09:07;11.00;99.90
10692;DHT22;5396;50.950;6.988;2022-11-15T07:11:33;10.90;99.90
10692;DHT22;5396;50.950;6.988;2022-11-15T07:13:59;10.90;99.90
10692;DHT22;5396;50.950;6.988;2022-11-15T07:16:25;10.90;99.90
10692;DHT22;5396;50.950;6.988;2022-11-15T07:18:51;10.90;99.90
10692;DHT22;5396;50.950;6.988;2022-11-15T07:21:16;10.90;99.90
10692;DHT22;5396;50.950;6.988;2022-11-15T07:23:42;10.90;99.90
10692;DHT22;5396;50.950;6.988;2022-11-15T07:26:08;10.90;99.90
10692;DHT22;5396;50.950;6.988;2022-11-15T07:28:34;10.90;99.90
10692;DHT22;5396;50.950;6.988;2022-11-15T07:31:07;10.90;99.90
10692;DHT22;5396;50.950;6.988;2022-11-15T07:33:34;10.90;99.90
10692;DHT22;5396;50.950;6.988;2022-11-15T07:36:03;10.90;99.90
10692;DHT22;5396;50.950;6.988;2022-11-15T07:38:30;10.90;99.90
10692;DHT22;5396;50.950;6.988;2022-11-15T07:41:00;10.90;99.90
10692;DHT22;5396;50.950;6.988;2022-11-15T07:43:26;10.90;99.90
10692;DHT22;5396;50.950;6.988;2022-11-15T07:45:56;10.90;99.90
10692;DHT22;5396;50.950;6.988;2022-11-15T07:48:22;10.90;99.90
10692;DHT22;5396;50.950;6.988;2022-11-15T07:50:47;11.00;99.90
10692;DHT22;5396;50.950;6.988;2022-11-15T07:53:13;11.00;99.90
10692;DHT22;5396;50.950;6.988;2022-11-15T07:55:40;11.10;99.90
10692;DHT22;5396;50.950;6.988;2022-11-15T07:58:08;11.10;99.90
10692;DHT22;5396;50.950;6.988;2022-11-15T08:00:34;11.20;99.90
10692;DHT22;5396;50.950;6.988;2022-11-15T08:03:08;11.20;99.90
10692;DHT22;5396;50.950;6.988;2022-11-15T08:05:36;11.30;99.90
10692;DHT22;5396;50.950;6.988;2022-11-15T08:08:02;11.30;99.90
10692;DHT22;5396;50.950;6.988;2022-11-15T08:10:28;11.30;99.90
10692;DHT22;5396;50.950;6.988;2022-11-15T08:15:24;11.40;99.90
10692;DHT22;5396;50.950;6.988;2022-11-15T08:17:56;11.40;99.90
10692;DHT22;5396;50.950;6.988;2022-11-15T08:20:23;11.40;99.90
10692;DHT22;5396;50.950;6.988;2022-11-15T08:22:49;11.40;99.90
10692;DHT22;5396;50.950;6.988;2022-11-15T08:25:14;11.40;99.90
10692;DHT22;5396;50.950;6.988;2022-11-15T08:27:40;11.40;99.90
10692;DHT22;5396;50.950;6.988;2022-11-15T08:30:06;11.40;99.90
10692;DHT22;5396;50.950;6.988;2022-11-15T08:32:32;11.50;99.90
10692;DHT22;5396;50.950;6.988;2022-11-15T08:34:57;11.50;99.90
10692;DHT22;5396;50.950;6.988;2022-11-15T08:37:23;11.50;99.90
10692;DHT22;5396;50.950;6.988;2022-11-15T08:39:48;11.50;99.90
10692;DHT22;5396;50.950;6.988;2022-11-15T08:42:14;11.60;99.90
10692;DHT22;5396;50.950;6.988;2022-11-15T08:44:41;11.60;99.90
10692;DHT22;5396;50.950;6.988;2022-11-15T08:47:07;11.60;99.90
10692;DHT22;5396;50.950;6.988;2022-11-15T08:49:33;11.70;99.90
10692;DHT22;5396;50.950;6.988;2022-11-15T08:51:59;11.70;99.90
10692;DHT22;5396;50.950;6.988;2022-11-15T08:54:24;11.80;99.90
10692;DHT22;5396;50.950;6.988;2022-11-15T08:56:50;11.80;99.90
10692;DHT22;5396;50.950;6.988;2022-11-15T08:59:16;11.80;99.90
10692;DHT22;5396;50.950;6.988;2022-11-15T09:01:41;11.90;99.90
10692;DHT22;5396;50.950;6.988;2022-11-15T09:04:07;11.90;99.90
10692;DHT22;5396;50.950;6.988;2022-11-15T09:06:32;11.90;99.90
10692;DHT22;5396;50.950;6.988;2022-11-15T09:09:00;11.90;99.90
10692;DHT22;5396;50.950;6.988;2022-11-15T09:11:26;12.00;99.90
10692;DHT22;5396;50.950;6.988;2022-11-15T09:13:52;12.00;99.90
10692;DHT22;5396;50.950;6.988;2022-11-15T09:16:17;12.10;99.90
10692;DHT22;5396;50.950;6.988;2022-11-15T09:18:43;12.10;99.90
10692;DHT22;5396;50.950;6.988;2022-11-15T09:21:09;12.20;99.90
10692;DHT22;5396;50.950;6.988;2022-11-15T09:23:35;12.20;99.90
10692;DHT22;5396;50.950;6.988;2022-11-15T09:26:02;12.30;99.90
10692;DHT22;5396;50.950;6.988;2022-11-15T09:28:28;12.30;99.90
10692;DHT22;5396;50.950;6.988;2022-11-15T09:31:03;12.40;99.90
10692;DHT22;5396;50.950;6.988;2022-11-15T09:33:29;12.40;99.90
10692;DHT22;5396;50.950;6.988;2022-11-15T09:35:56;12.50;99.90
10692;DHT22;5396;50.950;6.988;2022-11-15T09:38:24;12.60;99.90
10692;DHT22;5396;50.950;6.988;2022-11-15T09:44:03;12.60;99.90
10692;DHT22;5396;50.950;6.988;2022-11-15T09:47:08;12.60;99.90
10692;DHT22;5396;50.950;6.988;2022-11-15T09:49:39;12.70;99.90
10692;DHT22;5396;50.950;6.988;2022-11-15T09:52:04;12.70;99.90
10692;DHT22;5396;50.950;6.988;2022-11-15T09:54:34;12.70;99.90
10692;DHT22;5396;50.950;6.988;2022-11-15T10:05:17;12.80;99.90
10692;DHT22;5396;50.950;6.988;2022-11-15T10:08:03;12.80;99.90
10692;DHT22;5396;50.950;6.988;2022-11-15T10:10:43;12.90;99.90
10692;DHT22;5396;50.950;6.988;2022-11-15T10:13:32;13.00;99.90
10692;DHT22;5396;50.950;6.988;2022-11-15T10:16:22;13.00;99.90
10692;DHT22;5396;50.950;6.988;2022-11-15T10:21:40;13.10;99.90
10692;DHT22;5396;50.950;6.988;2022-11-15T10:24:19;13.10;99.90
10692;DHT22;5396;50.950;6.988;2022-11-15T10:26:49;13.20;99.90
10692;DHT22;5396;50.950;6.988;2022-11-15T10:29:21;13.20;99.90
10692;DHT22;5396;50.950;6.988;2022-11-15T10:31:47;13.30;99.90
10692;DHT22;5396;50.950;6.988;2022-11-15T10:34:19;13.30;99.90
10692;DHT22;5396;50.950;6.988;2022-11-15T10:36:59;13.40;99.90
10692;DHT22;5396;50.950;6.988;2022-11-15T10:39:26;13.40;99.90
10692;DHT22;5396;50.950;6.988;2022-11-15T10:41:52;13.50;99.90
10692;DHT22;5396;50.950;6.988;2022-11-15T10:44:24;13.60;99.90
10692;DHT22;5396;50.950;6.988;2022-11-15T10:49:30;13.70;99.90
10692;DHT22;5396;50.950;6.988;2022-11-15T10:52:01;13.70;99.90
10692;DHT22;5396;50.950;6.988;2022-11-15T10:54:37;13.70;99.90
10692;DHT22;5396;50.950;6.988;2022-11-15T10:57:13;13.80;99.90
10692;DHT22;5396;50.950;6.988;2022-11-15T10:59:46;13.80;99.90
10692;DHT22;5396;50.950;6.988;2022-11-15T11:04:54;13.80;99.90
10692;DHT22;5396;50.950;6.988;2022-11-15T11:07:26;13.80;99.90
10692;DHT22;5396;50.950;6.988;2022-11-15T11:10:20;13.90;99.90
10692;DHT22;5396;50.950;6.988;2022-11-15T11:12:46;13.90;99.90
10692;DHT22;5396;50.950;6.988;2022-11-15T11:15:13;13.90;99.90
10692;DHT22;5396;50.950;6.988;2022-11-15T11:18:17;13.90;99.90
10692;DHT22;5396;50.950;6.988;2022-11-15T11:20:45;13.90;99.90
10692;DHT22;5396;50.950;6.988;2022-11-15T11:24:14;14.10;99.90
10692;DHT22;5396;50.950;6.988;2022-11-15T11:26:42;14.20;99.90
10692;DHT22;5396;50.950;6.988;2022-11-15T11:29:50;14.20;99.90
10692;DHT22;5396;50.950;6.988;2022-11-15T11:32:40;14.20;99.90
10692;DHT22;5396;50.950;6.988;2022-11-15T11:38:22;14.30;99.90
10692;DHT22;5396;50.950;6.988;2022-11-15T11:41:04;14.30;99.90
10692;DHT22;5396;50.950;6.988;2022-11-15T11:46:47;14.30;99.90
10692;DHT22;5396;50.950;6.988;2022-11-15T11:49:51;14.30;99.90
10692;DHT22;5396;50.950;6.988;2022-11-15T11:52:15;14.40;99.90
10692;DHT22;5396;50.950;6.988;2022-11-15T11:54:51;14.60;99.90
10692;DHT22;5396;50.950;6.988;2022-11-15T12:00:00;14.60;99.90
10692;DHT22;5396;50.950;6.988;2022-11-15T12:02:31;14.70;99.90
10692;DHT22;5396;50.950;6.988;2022-11-15T12:07:48;14.80;99.90
10692;DHT22;5396;50.950;6.988;2022-11-15T12:10:32;15.00;99.90
10692;DHT22;5396;50.950;6.988;2022-11-15T12:13:09;15.10;99.90
10692;DHT22;5396;50.950;6.988;2022-11-15T12:15:41;15.10;99.90
10692;DHT22;5396;50.950;6.988;2022-11-15T12:18:13;15.20;99.90
10692;DHT22;5396;50.950;6.988;2022-11-15T12:20:50;15.20;99.90
10692;DHT22;5396;50.950;6.988;2022-11-15T12:23:26;15.00;99.90
10692;DHT22;5396;50.950;6.988;2022-11-15T12:34:04;15.10;99.90
10692;DHT22;5396;50.950;6.988;2022-11-15T12:36:38;15.30;99.90
10692;DHT22;5396;50.950;6.988;2022-11-15T12:41:41;15.40;99.90
10692;DHT22;5396;50.950;6.988;2022-11-15T12:52:05;15.40;99.90
10692;DHT22;5396;50.950;6.988;2022-11-15T12:59:53;15.50;99.90
10692;DHT22;5396;50.950;6.988;2022-11-15T13:02:38;15.50;99.90
10692;DHT22;5396;50.950;6.988;2022-11-15T13:17:52;15.30;99.90
10692;DHT22;5396;50.950;6.988;2022-11-15T13:20:25;15.30;99.90
10692;DHT22;5396;50.950;6.988;2022-11-15T13:28:00;14.90;99.90
10692;DHT22;5396;50.950;6.988;2022-11-15T13:30:29;15.00;99.90
10692;DHT22;5396;50.950;6.988;2022-11-15T13:32:57;15.30;99.90
10692;DHT22;5396;50.950;6.988;2022-11-15T13:35:26;15.40;99.90
10692;DHT22;5396;50.950;6.988;2022-11-15T13:37:53;15.50;99.90
10692;DHT22;5396;50.950;6.988;2022-11-15T13:40:29;15.40;99.90
10692;DHT22;5396;50.950;6.988;2022-11-15T13:42:59;15.20;99.90
10692;DHT22;5396;50.950;6.988;2022-11-15T13:45:39;15.10;99.90
10692;DHT22;5396;50.950;6.988;2022-11-15T13:48:04;14.90;99.90
10692;DHT22;5396;50.950;6.988;2022-11-15T13:50:33;14.80;99.90
10692;DHT22;5396;50.950;6.988;2022-11-15T13:53:02;14.70;99.90
10692;DHT22;5396;50.950;6.988;2022-11-15T13:55:29;14.70;99.90
10692;DHT22;5396;50.950;6.988;2022-11-15T13:58:01;14.70;99.90
10692;DHT22;5396;50.950;6.988;2022-11-15T14:00:40;14.60;99.90
10692;DHT22;5396;50.950;6.988;2022-11-15T14:03:18;14.60;99.90
10692;DHT22;5396;50.950;6.988;2022-11-15T14:06:01;14.60;99.90
10692;DHT22;5396;50.950;6.988;2022-11-15T14:08:27;14.60;99.90
10692;DHT22;5396;50.950;6.988;2022-11-15T14:11:25;14.60;99.90
10692;DHT22;5396;50.950;6.988;2022-11-15T14:16:43;14.60;99.90
10692;DHT22;5396;50.950;6.988;2022-11-15T14:19:33;14.50;99.90
10692;DHT22;5396;50.950;6.988;2022-11-15T14:24:45;14.50;99.90
10692;DHT22;5396;50.950;6.988;2022-11-15T14:27:27;14.50;99.90
10692;DHT22;5396;50.950;6.988;2022-11-15T14:29:54;14.50;99.90
10692;DHT22;5396;50.950;6.988;2022-11-15T14:32:29;14.40;99.90
10692;DHT22;5396;50.950;6.988;2022-11-15T14:34:59;14.40;99.90
10692;DHT22;5396;50.950;6.988;2022-11-15T14:37:33;14.40;99.90
10692;DHT22;5396;50.950;6.988;2022-11-15T14:40:04;14.30;99.90
10692;DHT22;5396;50.950;6.988;2022-11-15T14:42:30;14.30;99.90
10692;DHT22;5396;50.950;6.988;2022-11-15T14:44:56;14.30;99.90
10692;DHT22;5396;50.950;6.988;2022-11-15T14:47:22;14.30;99.90
10692;DHT22;5396;50.950;6.988;2022-11-15T14:49:47;14.30;99.90
10692;DHT22;5396;50.950;6.988;2022-11-15T14:52:24;14.30;99.90
10692;DHT22;5396;50.950;6.988;2022-11-15T14:54:50;14.20;99.90
10692;DHT22;5396;50.950;6.988;2022-11-15T14:57:16;14.30;99.90
10692;DHT22;5396;50.950;6.988;2022-11-15T14:59:41;14.30;99.90
10692;DHT22;5396;50.950;6.988;2022-11-15T15:02:27;14.30;99.90
10692;DHT22;5396;50.950;6.988;2022-11-15T15:04:53;14.20;99.90
10692;DHT22;5396;50.950;6.988;2022-11-15T15:07:19;14.20;99.90
10692;DHT22;5396;50.950;6.988;2022-11-15T15:09:45;14.10;99.90
10692;DHT22;5396;50.950;6.988;2022-11-15T15:14:41;14.10;99.90
10692;DHT22;5396;50.950;6.988;2022-11-15T15:17:07;14.00;99.90
10692;DHT22;5396;50.950;6.988;2022-11-15T15:19:33;14.00;99.90
10692;DHT22;5396;50.950;6.988;2022-11-15T15:21:58;13.90;99.90
10692;DHT22;5396;50.950;6.988;2022-11-15T15:24:24;13.90;99.90
10692;DHT22;5396;50.950;6.988;2022-11-15T15:26:49;13.90;99.90
10692;DHT22;5396;50.950;6.988;2022-11-15T15:29:15;13.90;99.90
10692;DHT22;5396;50.950;6.988;2022-11-15T15:31:40;13.80;99.90
10692;DHT22;5396;50.950;6.988;2022-11-15T15:34:06;13.80;99.90
10692;DHT22;5396;50.950;6.988;2022-11-15T15:36:31;13.70;99.90
10692;DHT22;5396;50.950;6.988;2022-11-15T15:38:57;13.70;99.90
10692;DHT22;5396;50.950;6.988;2022-11-15T15:41:23;13.70;99.90
10692;DHT22;5396;50.950;6.988;2022-11-15T15:43:48;13.70;99.90
10692;DHT22;5396;50.950;6.988;2022-11-15T15:46:16;13.70;99.90
10692;DHT22;5396;50.950;6.988;2022-11-15T15:48:42;13.70;99.90
10692;DHT22;5396;50.950;6.988;2022-11-15T15:51:07;13.70;99.90
10692;DHT22;5396;50.950;6.988;2022-11-15T15:53:33;13.70;99.90
10692;DHT22;5396;50.950;6.988;2022-11-15T15:55:59;13.70;99.90
10692;DHT22;5396;50.950;6.988;2022-11-15T15:58:25;13.60;99.90
10692;DHT22;5396;50.950;6.988;2022-11-15T16:00:51;13.60;99.90
10692;DHT22;5396;50.950;6.988;2022-11-15T16:03:16;13.60;99.90
10692;DHT22;5396;50.950;6.988;2022-11-15T16:05:42;13.60;99.90
10692;DHT22;5396;50.950;6.988;2022-11-15T16:08:19;13.60;99.90
10692;DHT22;5396;50.950;6.988;2022-11-15T16:10:46;13.60;99.90
10692;DHT22;5396;50.950;6.988;2022-11-15T16:13:11;13.60;99.90
10692;DHT22;5396;50.950;6.988;2022-11-15T16:15:37;13.60;99.90
10692;DHT22;5396;50.950;6.988;2022-11-15T16:18:04;13.60;99.90
10692;DHT22;5396;50.950;6.988;2022-11-15T16:22:58;13.60;99.90
10692;DHT22;5396;50.950;6.988;2022-11-15T16:25:25;13.60;99.90
10692;DHT22;5396;50.950;6.988;2022-11-15T16:27:50;13.60;99.90
10692;DHT22;5396;50.950;6.988;2022-11-15T16:30:19;13.60;99.90
10692;DHT22;5396;50.950;6.988;2022-11-15T16:32:45;13.70;99.90
10692;DHT22;5396;50.950;6.988;2022-11-15T16:35:12;13.70;99.90
10692;DHT22;5396;50.950;6.988;2022-11-15T16:37:38;13.70;99.90
10692;DHT22;5396;50.950;6.988;2022-11-15T16:42:46;13.70;99.90
10692;DHT22;5396;50.950;6.988;2022-11-15T16:45:11;13.70;99.90
10692;DHT22;5396;50.950;6.988;2022-11-15T16:47:39;13.70;99.90
10692;DHT22;5396;50.950;6.988;2022-11-15T16:50:05;13.70;99.90
10692;DHT22;5396;50.950;6.988;2022-11-15T16:52:30;13.70;99.90
10692;DHT22;5396;50.950;6.988;2022-11-15T16:54:56;13.70;99.90
10692;DHT22;5396;50.950;6.988;2022-11-15T16:57:21;13.70;99.90
10692;DHT22;5396;50.950;6.988;2022-11-15T16:59:47;13.70;99.90
10692;DHT22;5396;50.950;6.988;2022-11-15T17:02:12;13.70;99.90
10692;DHT22;5396;50.950;6.988;2022-11-15T17:04:38;13.70;99.90
10692;DHT22;5396;50.950;6.988;2022-11-15T17:07:04;13.70;99.90
10692;DHT22;5396;50.950;6.988;2022-11-15T17:09:31;13.70;99.90
10692;DHT22;5396;50.950;6.988;2022-11-15T17:11:57;13.70;99.90
10692;DHT22;5396;50.950;6.988;2022-11-15T17:14:22;13.70;99.90
10692;DHT22;5396;50.950;6.988;2022-11-15T17:16:48;13.70;99.90
10692;DHT22;5396;50.950;6.988;2022-11-15T17:19:16;13.60;99.90
10692;DHT22;5396;50.950;6.988;2022-11-15T17:21:44;13.60;99.90
10692;DHT22;5396;50.950;6.988;2022-11-15T17:24:13;13.60;99.90
10692;DHT22;5396;50.950;6.988;2022-11-15T17:26:39;13.60;99.90
10692;DHT22;5396;50.950;6.988;2022-11-15T17:29:05;13.60;99.90
10692;DHT22;5396;50.950;6.988;2022-11-15T17:31:36;13.60;99.90
10692;DHT22;5396;50.950;6.988;2022-11-15T17:34:04;13.60;99.90
10692;DHT22;5396;50.950;6.988;2022-11-15T17:36:30;13.60;99.90
10692;DHT22;5396;50.950;6.988;2022-11-15T17:38:55;13.60;99.90
10692;DHT22;5396;50.950;6.988;2022-11-15T17:41:21;13.60;99.90
10692;DHT22;5396;50.950;6.988;2022-11-15T17:43:47;13.60;99.90
10692;DHT22;5396;50.950;6.988;2022-11-15T17:46:17;13.50;99.90
10692;DHT22;5396;50.950;6.988;2022-11-15T17:48:44;13.40;99.90
10692;DHT22;5396;50.950;6.988;2022-11-15T17:51:11;13.40;99.90
10692;DHT22;5396;50.950;6.988;2022-11-15T17:53:40;13.30;99.90
10692;DHT22;5396;50.950;6.988;2022-11-15T17:56:11;13.20;99.90